Time;durP1;ratioP1;P1;durP2;ratioP2;P2;SDS_P1;SDS_P2;PMS_P1;PMS_P2;Temp;Humidity;BMP_temperature;BMP_pressure;BME280_temperature;BME280_humidity;BME280_pressure;Samples;Min_cycle;Max_cycle;Signal;HPM_P1;HPM_P2
2023/05/30 00:01:13;;;;;;;12.15;7.38;;;;;;;;;;9507030;29;20064;-72
2023/05/30 00:06:07;;;;;;;9.27;6.35;;;;;;;;;;9518589;30;20080;-71
2023/05/30 00:11:00;;;;;;;10.75;6.35;;;;;;;;;;9492605;30;20080;-71
2023/05/30 00:15:58;;;;;;;10.23;6.38;;;;;;;;;;9505021;30;20113;-72
2023/05/30 00:20:53;;;;;;;7.87;6.30;;;;;;;;;;9498468;30;20068;-72
2023/05/30 00:25:50;;;;;;;8.23;5.85;;;;;;;;;;9492863;30;20075;-71
2023/05/30 00:30:44;;;;;;;14.88;6.63;;;;;;;;;;9491630;30;20060;-73
2023/05/30 00:35:37;;;;;;;8.95;6.72;;;;;;;;;;9493476;30;20167;-72
2023/05/30 00:40:30;;;;;;;9.05;6.20;;;;;;;;;;9502579;30;20082;-72
2023/05/30 00:45:24;;;;;;;11.93;8.25;;;;;;;;;;9503231;30;20062;-70
2023/05/30 00:50:21;;;;;;;16.17;7.30;;;;;;;;;;9502603;30;20118;-70
2023/05/30 00:55:15;;;;;;;14.63;8.98;;;;;;;;;;9504922;30;20052;-70
2023/05/30 01:00:10;;;;;;;15.38;8.50;;;;;;;;;;9503058;30;20052;-70
2023/05/30 01:05:04;;;;;;;12.43;6.85;;;;;;;;;;9503987;30;20146;-71
2023/05/30 01:09:57;;;;;;;11.32;7.65;;;;;;;;;;9517503;29;20052;-71
2023/05/30 01:15:04;;;;;;;14.73;7.88;;;;;;;;;;9496044;30;20056;-71
2023/05/30 01:20:17;;;;;;;15.13;8.18;;;;;;;;;;9494012;30;20125;-71
2023/05/30 01:25:37;;;;;;;13.50;8.25;;;;;;;;;;9503910;30;20479;-71
2023/05/30 01:30:31;;;;;;;7.90;7.10;;;;;;;;;;9492252;30;20169;-70
2023/05/30 01:35:25;;;;;;;10.73;8.05;;;;;;;;;;9502886;30;20068;-70
2023/05/30 01:40:21;;;;;;;11.35;7.55;;;;;;;;;;9501962;30;20143;-71
2023/05/30 01:45:37;;;;;;;10.25;8.20;;;;;;;;;;9502732;30;20114;-71
2023/05/30 01:50:37;;;;;;;11.98;7.38;;;;;;;;;;9508447;30;20438;-71
2023/05/30 01:55:31;;;;;;;10.25;7.43;;;;;;;;;;9509402;30;20525;-71
2023/05/30 02:00:25;;;;;;;12.85;7.85;;;;;;;;;;9491207;30;20412;-69
2023/05/30 02:05:19;;;;;;;16.00;8.15;;;;;;;;;;9508291;30;20663;-72
2023/05/30 02:10:12;;;;;;;16.33;8.57;;;;;;;;;;9522869;30;20443;-72
2023/05/30 02:15:15;;;;;;;15.85;8.90;;;;;;;;;;9509893;30;20520;-72
2023/05/30 02:20:09;;;;;;;19.00;9.55;;;;;;;;;;9508715;30;20087;-72
2023/05/30 02:25:03;;;;;;;17.13;10.45;;;;;;;;;;9507826;30;20244;-71
2023/05/30 02:29:56;;;;;;;20.85;8.80;;;;;;;;;;9509990;30;20052;-74
2023/05/30 02:34:50;;;;;;;21.85;9.88;;;;;;;;;;9507808;30;20402;-71
2023/05/30 02:39:44;;;;;;;29.98;10.48;;;;;;;;;;9497493;30;20501;-72
2023/05/30 02:44:38;;;;;;;19.23;9.05;;;;;;;;;;9508339;30;20505;-72
2023/05/30 02:49:31;;;;;;;21.45;9.70;;;;;;;;;;9506871;30;20490;-71
2023/05/30 02:54:25;;;;;;;18.52;10.20;;;;;;;;;;9506602;30;20088;-71
2023/05/30 02:59:40;;;;;;;30.15;12.27;;;;;;;;;;9505277;30;20060;-71
2023/05/30 03:04:36;;;;;;;20.60;11.15;;;;;;;;;;9504666;30;20509;-71
2023/05/30 03:09:31;;;;;;;19.15;11.25;;;;;;;;;;9496399;30;20060;-70
2023/05/30 03:14:24;;;;;;;17.75;11.27;;;;;;;;;;9519749;30;20431;-70
2023/05/30 03:19:20;;;;;;;20.90;11.15;;;;;;;;;;9505732;29;20057;-70
2023/05/30 03:24:16;;;;;;;25.03;13.17;;;;;;;;;;9520922;30;20084;-70
2023/05/30 03:29:10;;;;;;;17.75;12.63;;;;;;;;;;9507257;30;20063;-72
2023/05/30 03:34:04;;;;;;;18.63;11.55;;;;;;;;;;9495847;30;20150;-71
2023/05/30 03:38:58;;;;;;;16.85;10.85;;;;;;;;;;9496920;30;20059;-71
2023/05/30 03:43:51;;;;;;;17.05;11.15;;;;;;;;;;9503259;30;20059;-71
2023/05/30 03:48:44;;;;;;;15.95;9.95;;;;;;;;;;9495312;30;20504;-71
2023/05/30 03:53:38;;;;;;;12.02;9.32;;;;;;;;;;9506818;30;20131;-71
2023/05/30 03:58:32;;;;;;;15.65;9.40;;;;;;;;;;9499585;30;20121;-72
2023/05/30 04:03:24;;;;;;;12.73;9.60;;;;;;;;;;9505036;30;20484;-71
2023/05/30 04:08:17;;;;;;;17.27;9.38;;;;;;;;;;9513844;30;20135;-71
2023/05/30 04:13:11;;;;;;;11.15;8.18;;;;;;;;;;9504786;30;20056;-71
2023/05/30 04:18:05;;;;;;;9.70;7.10;;;;;;;;;;9503673;30;20083;-71
2023/05/30 04:22:58;;;;;;;10.75;7.68;;;;;;;;;;9503226;30;20114;-71
2023/05/30 04:27:54;;;;;;;17.50;8.57;;;;;;;;;;9502478;30;20151;-71
2023/05/30 04:32:48;;;;;;;9.77;8.15;;;;;;;;;;9499651;30;20068;-71
2023/05/30 04:37:44;;;;;;;12.35;8.10;;;;;;;;;;9502161;30;20421;-72
2023/05/30 04:42:40;;;;;;;10.77;7.85;;;;;;;;;;9518218;30;20069;-72
2023/05/30 04:47:33;;;;;;;12.55;8.35;;;;;;;;;;9502007;30;20087;-71
2023/05/30 04:52:27;;;;;;;14.32;9.50;;;;;;;;;;9499971;30;20062;-71
2023/05/30 04:57:20;;;;;;;10.75;8.85;;;;;;;;;;9503156;30;20143;-71
2023/05/30 05:02:14;;;;;;;10.43;8.35;;;;;;;;;;9499937;30;20063;-71
2023/05/30 05:07:08;;;;;;;10.45;7.57;;;;;;;;;;9517278;29;20512;-71
2023/05/30 05:12:03;;;;;;;12.55;8.88;;;;;;;;;;9496478;30;20052;-71
2023/05/30 05:16:57;;;;;;;11.80;9.63;;;;;;;;;;9494347;30;20064;-70
2023/05/30 05:21:51;;;;;;;13.25;8.25;;;;;;;;;;9498433;30;20496;-71
2023/05/30 05:26:44;;;;;;;16.40;8.85;;;;;;;;;;9500572;30;20062;-70
2023/05/30 05:31:39;;;;;;;13.63;8.50;;;;;;;;;;9512079;30;20147;-70
2023/05/30 05:36:33;;;;;;;13.55;7.95;;;;;;;;;;9499911;30;20067;-70
2023/05/30 05:41:27;;;;;;;12.88;9.73;;;;;;;;;;9501627;30;20060;-71
2023/05/30 05:46:21;;;;;;;22.25;9.10;;;;;;;;;;9475255;30;20060;-71
2023/05/30 05:51:15;;;;;;;15.93;9.45;;;;;;;;;;9471776;30;20052;-72
2023/05/30 05:56:08;;;;;;;14.38;8.85;;;;;;;;;;9467107;30;20071;-67
2023/05/30 06:01:02;;;;;;;19.17;9.43;;;;;;;;;;9467375;30;20122;-67
2023/05/30 06:05:57;;;;;;;12.65;8.95;;;;;;;;;;9467324;30;20065;-67
2023/05/30 06:10:51;;;;;;;14.48;8.75;;;;;;;;;;9467226;30;20422;-67
2023/05/30 06:15:45;;;;;;;18.40;9.75;;;;;;;;;;9498276;30;20064;-67
2023/05/30 06:20:39;;;;;;;14.95;9.70;;;;;;;;;;9515726;30;20421;-66
2023/05/30 06:25:32;;;;;;;16.80;10.88;;;;;;;;;;9502149;30;20060;-67
2023/05/30 06:30:25;;;;;;;14.13;8.25;;;;;;;;;;9499837;30;20493;-68
2023/05/30 06:35:19;;;;;;;11.68;9.38;;;;;;;;;;9508222;30;20520;-67
2023/05/30 06:40:13;;;;;;;16.25;12.15;;;;;;;;;;9507318;30;20131;-67
2023/05/30 06:45:08;;;;;;;18.23;11.35;;;;;;;;;;9518356;30;20055;-67
2023/05/30 06:50:02;;;;;;;14.63;8.90;;;;;;;;;;9502127;30;20086;-67
2023/05/30 06:54:56;;;;;;;17.42;8.90;;;;;;;;;;9502216;30;20100;-67
2023/05/30 06:59:48;;;;;;;15.13;9.10;;;;;;;;;;9504638;29;20103;-67
2023/05/30 07:04:42;;;;;;;15.68;8.32;;;;;;;;;;9508523;30;20132;-67
2023/05/30 07:09:36;;;;;;;15.93;8.85;;;;;;;;;;9507345;30;20048;-67
2023/05/30 07:14:30;;;;;;;28.13;9.27;;;;;;;;;;9506791;30;20060;-67
2023/05/30 07:19:24;;;;;;;17.40;10.15;;;;;;;;;;9520268;30;20091;-66
2023/05/30 07:24:18;;;;;;;20.48;10.32;;;;;;;;;;9506307;30;20064;-68
2023/05/30 07:29:12;;;;;;;26.80;12.60;;;;;;;;;;9507080;30;20118;-67
2023/05/30 07:34:06;;;;;;;17.30;11.88;;;;;;;;;;9507628;30;20071;-67
2023/05/30 07:39:00;;;;;;;15.02;10.55;;;;;;;;;;9505807;30;20615;-68
2023/05/30 07:43:54;;;;;;;18.60;10.57;;;;;;;;;;9507173;30;20052;-67
2023/05/30 07:48:47;;;;;;;19.77;8.90;;;;;;;;;;9506966;30;20132;-67
2023/05/30 07:53:40;;;;;;;18.35;10.27;;;;;;;;;;9505278;30;20060;-67
2023/05/30 07:58:34;;;;;;;16.13;10.93;;;;;;;;;;9505877;30;20056;-67
2023/05/30 08:03:28;;;;;;;20.58;8.68;;;;;;;;;;9506812;30;20060;-67
2023/05/30 08:08:21;;;;;;;17.20;9.73;;;;;;;;;;9504590;30;20436;-68
2023/05/30 08:13:16;;;;;;;13.18;9.75;;;;;;;;;;9505302;30;20144;-68
2023/05/30 08:18:09;;;;;;;12.88;7.78;;;;;;;;;;9505857;30;20067;-67
2023/05/30 08:23:06;;;;;;;20.88;9.57;;;;;;;;;;9504872;30;20056;-68
2023/05/30 08:28:16;;;;;;;20.38;9.57;;;;;;;;;;9506121;30;20060;-68
2023/05/30 08:33:10;;;;;;;14.52;7.53;;;;;;;;;;9503562;30;20091;-68
2023/05/30 08:38:03;;;;;;;14.00;7.80;;;;;;;;;;9503258;30;20136;-67
2023/05/30 08:42:56;;;;;;;11.30;7.97;;;;;;;;;;9517672;30;20056;-67
2023/05/30 08:47:56;;;;;;;14.70;8.30;;;;;;;;;;9504292;30;20147;-67
2023/05/30 08:52:51;;;;;;;16.27;8.57;;;;;;;;;;9504114;30;20462;-67
2023/05/30 08:57:51;;;;;;;14.73;9.20;;;;;;;;;;9504569;30;20463;-68
2023/05/30 09:02:45;;;;;;;14.10;7.95;;;;;;;;;;9504146;30;20596;-68
2023/05/30 09:07:39;;;;;;;10.68;7.55;;;;;;;;;;9503954;30;20063;-66
2023/05/30 09:12:33;;;;;;;20.35;7.47;;;;;;;;;;9503846;30;20056;-66
2023/05/30 09:17:26;;;;;;;10.38;7.18;;;;;;;;;;9503769;30;20060;-67
2023/05/30 09:22:21;;;;;;;11.20;7.68;;;;;;;;;;9502970;30;20117;-67
2023/05/30 09:27:15;;;;;;;12.02;7.38;;;;;;;;;;9502878;30;20138;-67
2023/05/30 09:32:09;;;;;;;8.02;6.60;;;;;;;;;;9504462;30;20060;-67
2023/05/30 09:37:04;;;;;;;8.98;7.05;;;;;;;;;;9504014;30;20052;-67
2023/05/30 09:41:57;;;;;;;11.95;7.00;;;;;;;;;;9502393;30;20056;-67
2023/05/30 09:46:58;;;;;;;11.02;7.63;;;;;;;;;;9502674;30;20056;-67
2023/05/30 09:51:51;;;;;;;17.95;8.23;;;;;;;;;;9502590;30;20060;-67
2023/05/30 09:56:45;;;;;;;9.27;6.63;;;;;;;;;;9515537;30;20436;-67
2023/05/30 10:01:41;;;;;;;36.50;9.68;;;;;;;;;;9502822;30;20068;-68
2023/05/30 10:06:37;;;;;;;12.00;8.27;;;;;;;;;;9503994;30;20067;-68
2023/05/30 10:11:31;;;;;;;11.02;6.78;;;;;;;;;;9508870;30;20048;-68
2023/05/30 10:16:24;;;;;;;12.68;6.40;;;;;;;;;;9509815;30;20063;-68
2023/05/30 10:21:17;;;;;;;7.22;5.47;;;;;;;;;;9509314;30;20497;-68
2023/05/30 10:26:12;;;;;;;8.98;6.45;;;;;;;;;;9508818;30;20052;-67
2023/05/30 10:31:07;;;;;;;7.68;6.40;;;;;;;;;;9509360;30;20056;-68
2023/05/30 10:36:01;;;;;;;8.23;5.18;;;;;;;;;;9522152;30;20068;-67
2023/05/30 10:41:12;;;;;;;6.55;4.90;;;;;;;;;;9522243;30;20062;-68
2023/05/30 10:46:23;;;;;;;9.02;5.63;;;;;;;;;;9508217;30;20056;-68
2023/05/30 10:51:16;;;;;;;6.85;5.28;;;;;;;;;;9508133;30;20067;-67
2023/05/30 10:56:34;;;;;;;8.20;5.80;;;;;;;;;;9508164;30;20064;-67
2023/05/30 11:01:31;;;;;;;8.85;5.82;;;;;;;;;;9508684;30;20095;-68
2023/05/30 11:06:27;;;;;;;12.35;6.47;;;;;;;;;;9519461;30;20064;-68
2023/05/30 11:11:20;;;;;;;9.83;6.30;;;;;;;;;;9506524;30;20088;-67
2023/05/30 11:17:03;;;;;;;7.50;5.35;;;;;;;;;;9507750;29;20298;-67
2023/05/30 11:22:22;;;;;;;9.27;5.70;;;;;;;;;;9504228;30;20484;-68
2023/05/30 11:27:16;;;;;;;8.80;6.43;;;;;;;;;;9507467;30;20118;-68
2023/05/30 11:32:11;;;;;;;8.20;5.78;;;;;;;;;;9506728;30;20425;-68
2023/05/30 11:37:06;;;;;;;10.10;5.00;;;;;;;;;;9507227;30;20127;-68
2023/05/30 11:42:00;;;;;;;7.28;5.28;;;;;;;;;;9507779;30;20056;-68
2023/05/30 11:47:11;;;;;;;13.73;5.40;;;;;;;;;;9506865;30;20064;-68
2023/05/30 11:52:12;;;;;;;10.50;5.22;;;;;;;;;;9476969;30;20064;-67
2023/05/30 11:57:07;;;;;;;7.43;4.55;;;;;;;;;;9501075;30;20056;-67
2023/05/30 12:02:01;;;;;;;9.23;5.50;;;;;;;;;;9505970;30;20118;-66
2023/05/30 12:07:00;;;;;;;8.25;4.57;;;;;;;;;;9504793;30;20131;-66
2023/05/30 12:11:58;;;;;;;7.75;4.70;;;;;;;;;;9506038;30;20052;-66
2023/05/30 12:16:57;;;;;;;8.30;4.88;;;;;;;;;;9504699;30;20064;-66
2023/05/30 12:22:09;;;;;;;11.43;5.07;;;;;;;;;;9494552;30;20425;-69
2023/05/30 12:27:03;;;;;;;7.22;4.40;;;;;;;;;;9497815;30;20056;-68
2023/05/30 12:31:57;;;;;;;12.77;4.43;;;;;;;;;;9496547;30;20056;-68
2023/05/30 12:36:57;;;;;;;4.45;4.00;;;;;;;;;;9489227;30;20048;-68
2023/05/30 12:41:50;;;;;;;9.48;4.53;;;;;;;;;;9490256;30;20060;-71
2023/05/30 12:46:43;;;;;;;6.80;3.90;;;;;;;;;;9495344;30;20052;-69
2023/05/30 12:51:37;;;;;;;5.78;3.38;;;;;;;;;;9491793;30;20517;-70
2023/05/30 12:56:31;;;;;;;5.47;3.42;;;;;;;;;;9489432;30;20064;-70
2023/05/30 13:01:24;;;;;;;8.63;4.07;;;;;;;;;;9480056;29;20095;-70
2023/05/30 13:06:17;;;;;;;7.43;3.58;;;;;;;;;;9498823;30;20079;-70
2023/05/30 13:11:10;;;;;;;7.45;3.13;;;;;;;;;;9498398;30;20109;-71
2023/05/30 13:16:05;;;;;;;11.40;4.28;;;;;;;;;;9492379;30;20067;-64
2023/05/30 13:20:57;;;;;;;3.95;3.05;;;;;;;;;;9488852;30;20135;-72
2023/05/30 13:25:52;;;;;;;5.68;3.22;;;;;;;;;;9488371;30;20060;-65
2023/05/30 13:30:45;;;;;;;3.67;3.10;;;;;;;;;;9493747;30;20054;-60
2023/05/30 13:35:39;;;;;;;6.83;3.63;;;;;;;;;;9435522;29;1890024;-60
2023/05/30 13:40:34;;;;;;;6.95;3.33;;;;;;;;;;9490270;30;20131;-60
2023/05/30 13:45:27;;;;;;;9.32;3.20;;;;;;;;;;9493589;30;20135;-60
2023/05/30 13:50:22;;;;;;;8.98;4.43;;;;;;;;;;9500424;30;20543;-60
2023/05/30 13:55:16;;;;;;;5.47;3.45;;;;;;;;;;9499733;30;20414;-60
2023/05/30 14:00:12;;;;;;;7.45;3.63;;;;;;;;;;9490507;30;20052;-61
2023/05/30 14:05:07;;;;;;;6.15;3.40;;;;;;;;;;9491361;30;20057;-60
2023/05/30 14:10:01;;;;;;;7.47;4.28;;;;;;;;;;9487223;30;20052;-60
2023/05/30 14:14:54;;;;;;;4.35;3.70;;;;;;;;;;9490721;30;20049;-60
2023/05/30 14:19:48;;;;;;;5.28;3.40;;;;;;;;;;9495490;30;20053;-64
2023/05/30 14:24:41;;;;;;;7.75;4.30;;;;;;;;;;9500929;30;20069;-63
2023/05/30 14:29:35;;;;;;;8.40;5.15;;;;;;;;;;9498494;30;20074;-63
2023/05/30 14:34:28;;;;;;;5.95;4.03;;;;;;;;;;9498961;30;20489;-63
2023/05/30 14:39:22;;;;;;;5.18;4.30;;;;;;;;;;9514028;30;20061;-63
2023/05/30 14:44:16;;;;;;;5.30;3.97;;;;;;;;;;9490742;30;20070;-63
2023/05/30 14:49:09;;;;;;;8.35;4.68;;;;;;;;;;9491517;30;20055;-63
2023/05/30 14:54:02;;;;;;;6.80;4.35;;;;;;;;;;9499816;30;20513;-62
2023/05/30 14:58:58;;;;;;;6.65;4.05;;;;;;;;;;9493998;30;20056;-63
2023/05/30 15:03:53;;;;;;;6.10;3.65;;;;;;;;;;9499477;30;20076;-63
2023/05/30 15:08:46;;;;;;;6.18;4.25;;;;;;;;;;9491221;30;20056;-63
2023/05/30 15:13:39;;;;;;;8.55;4.28;;;;;;;;;;9500344;30;20510;-63
2023/05/30 15:18:32;;;;;;;5.28;3.88;;;;;;;;;;9495900;30;20089;-63
2023/05/30 15:23:26;;;;;;;8.98;4.50;;;;;;;;;;9497664;30;20580;-63
2023/05/30 15:28:20;;;;;;;4.93;4.22;;;;;;;;;;9498375;30;20081;-63
2023/05/30 15:33:14;;;;;;;9.00;4.03;;;;;;;;;;9494503;30;20068;-63
2023/05/30 15:38:08;;;;;;;5.18;4.13;;;;;;;;;;9497019;30;20095;-63
2023/05/30 15:43:02;;;;;;;7.18;3.97;;;;;;;;;;9505668;30;20055;-63
2023/05/30 15:47:55;;;;;;;6.47;3.92;;;;;;;;;;9507050;30;20151;-63
2023/05/30 15:52:49;;;;;;;5.38;3.67;;;;;;;;;;9507630;30;20049;-63
2023/05/30 15:57:42;;;;;;;5.43;3.72;;;;;;;;;;9507090;30;20083;-63
2023/05/30 16:02:35;;;;;;;6.32;3.30;;;;;;;;;;9517599;30;20142;-63
2023/05/30 16:07:29;;;;;;;10.23;3.40;;;;;;;;;;9502929;30;20064;-63
2023/05/30 16:12:23;;;;;;;3.38;3.00;;;;;;;;;;9514939;30;20402;-63
2023/05/30 16:17:16;;;;;;;7.28;4.07;;;;;;;;;;9503027;30;20113;-63
2023/05/30 16:22:10;;;;;;;6.47;3.50;;;;;;;;;;9505651;30;20064;-63
2023/05/30 16:27:06;;;;;;;6.40;4.10;;;;;;;;;;9504733;30;20139;-63
2023/05/30 16:32:00;;;;;;;9.13;4.05;;;;;;;;;;9505895;30;20068;-63
2023/05/30 16:36:54;;;;;;;3.80;3.40;;;;;;;;;;9505373;30;20064;-63
2023/05/30 16:41:48;;;;;;;8.60;3.08;;;;;;;;;;9517219;30;20059;-63
2023/05/30 16:46:42;;;;;;;3.85;3.45;;;;;;;;;;9517218;30;20146;-63
2023/05/30 16:51:36;;;;;;;4.40;3.78;;;;;;;;;;9504209;30;20060;-63
2023/05/30 16:56:29;;;;;;;8.73;3.40;;;;;;;;;;9504787;30;20471;-63
2023/05/30 17:01:22;;;;;;;14.55;3.97;;;;;;;;;;9504349;30;20052;-63
2023/05/30 17:06:17;;;;;;;5.28;3.25;;;;;;;;;;9503052;30;20479;-63
2023/05/30 17:11:13;;;;;;;7.30;3.92;;;;;;;;;;9517190;30;20045;-63
2023/05/30 17:16:07;;;;;;;7.43;3.38;;;;;;;;;;9503384;30;20060;-63
2023/05/30 17:21:01;;;;;;;7.95;3.78;;;;;;;;;;9502074;30;20084;-62
2023/05/30 17:25:56;;;;;;;4.85;3.60;;;;;;;;;;9495943;30;20064;-63
2023/05/30 17:30:54;;;;;;;5.30;4.00;;;;;;;;;;9503537;30;20048;-63
2023/05/30 17:35:48;;;;;;;9.27;3.65;;;;;;;;;;9515568;30;20060;-63
2023/05/30 17:40:41;;;;;;;8.48;4.20;;;;;;;;;;9503574;30;20445;-62
2023/05/30 17:45:34;;;;;;;4.70;3.63;;;;;;;;;;9483052;30;20044;-63
2023/05/30 17:50:29;;;;;;;7.97;3.92;;;;;;;;;;9495629;30;20060;-64
2023/05/30 17:55:24;;;;;;;6.40;3.60;;;;;;;;;;9492056;30;20088;-63
2023/05/30 18:00:20;;;;;;;6.70;4.25;;;;;;;;;;9497891;30;20132;-63
2023/05/30 18:05:15;;;;;;;6.55;3.40;;;;;;;;;;9503296;30;20081;-62
2023/05/30 18:10:10;;;;;;;4.15;3.45;;;;;;;;;;9503645;30;20417;-62
2023/05/30 18:15:08;;;;;;;6.93;3.72;;;;;;;;;;9500301;30;20105;-62
2023/05/30 18:20:04;;;;;;;5.18;3.80;;;;;;;;;;9503136;30;20063;-62
2023/05/30 18:24:59;;;;;;;4.13;3.58;;;;;;;;;;9501138;30;20147;-62
2023/05/30 18:29:54;;;;;;;6.47;4.45;;;;;;;;;;9497868;30;20420;-61
2023/05/30 18:34:48;;;;;;;5.72;3.80;;;;;;;;;;9492195;30;20071;-62
2023/05/30 18:39:41;;;;;;;7.05;3.80;;;;;;;;;;9501270;30;20117;-61
2023/05/30 18:44:36;;;;;;;9.38;5.72;;;;;;;;;;9498945;30;20079;-61
2023/05/30 18:49:30;;;;;;;7.22;4.63;;;;;;;;;;9499166;30;20072;-61
2023/05/30 18:54:24;;;;;;;14.52;4.35;;;;;;;;;;9497666;30;20048;-62
2023/05/30 18:59:18;;;;;;;4.38;3.72;;;;;;;;;;9498967;30;20064;-62
2023/05/30 19:04:12;;;;;;;8.60;4.70;;;;;;;;;;9499240;30;20056;-61
2023/05/30 19:09:06;;;;;;;11.93;4.00;;;;;;;;;;9501119;30;20048;-62
2023/05/30 19:14:00;;;;;;;6.65;4.00;;;;;;;;;;9501855;30;20060;-61
2023/05/30 19:18:54;;;;;;;7.82;4.53;;;;;;;;;;9516220;30;20075;-71
2023/05/30 19:23:47;;;;;;;5.75;4.47;;;;;;;;;;9487466;30;20426;-61
2023/05/30 19:28:42;;;;;;;6.75;4.88;;;;;;;;;;9496782;30;20064;-66
2023/05/30 19:33:35;;;;;;;7.22;4.15;;;;;;;;;;9498085;30;20060;-61
2023/05/30 19:38:28;;;;;;;7.32;4.70;;;;;;;;;;9497274;30;20065;-63
2023/05/30 19:43:22;;;;;;;7.00;4.22;;;;;;;;;;9508720;30;20459;-63
2023/05/30 19:48:16;;;;;;;10.20;5.13;;;;;;;;;;9497937;30;20151;-61
2023/05/30 19:53:09;;;;;;;6.45;4.78;;;;;;;;;;9503087;30;20056;-61
2023/05/30 19:58:02;;;;;;;6.78;5.05;;;;;;;;;;9495305;30;20063;-62
2023/05/30 20:02:57;;;;;;;7.00;5.80;;;;;;;;;;9500613;30;20068;-62
2023/05/30 20:07:50;;;;;;;12.07;5.28;;;;;;;;;;9501352;30;20133;-62
2023/05/30 20:12:43;;;;;;;6.95;5.05;;;;;;;;;;9500460;30;20397;-63
2023/05/30 20:17:38;;;;;;;16.73;6.75;;;;;;;;;;9498770;30;20052;-66
2023/05/30 20:22:32;;;;;;;7.05;5.35;;;;;;;;;;9492405;30;20056;-67
2023/05/30 20:27:27;;;;;;;9.55;6.00;;;;;;;;;;9497294;30;20063;-69
2023/05/30 20:32:21;;;;;;;6.50;5.07;;;;;;;;;;9499919;30;20176;-68
2023/05/30 20:37:15;;;;;;;8.82;5.15;;;;;;;;;;9501203;30;20056;-69
2023/05/30 20:42:10;;;;;;;8.57;5.22;;;;;;;;;;9496940;30;20044;-66
2023/05/30 20:47:05;;;;;;;8.98;5.85;;;;;;;;;;9498505;30;20139;-69
2023/05/30 20:51:59;;;;;;;8.43;5.40;;;;;;;;;;9494201;30;20052;-68
2023/05/30 20:56:53;;;;;;;7.18;5.60;;;;;;;;;;9494631;30;20509;-69
2023/05/30 21:01:46;;;;;;;8.63;6.28;;;;;;;;;;9495630;30;20107;-67
2023/05/30 21:06:40;;;;;;;9.35;6.28;;;;;;;;;;9496870;30;20079;-66
2023/05/30 21:11:34;;;;;;;11.43;6.90;;;;;;;;;;9497819;30;20469;-68
2023/05/30 21:16:28;;;;;;;10.70;7.80;;;;;;;;;;9494716;30;20075;-65
2023/05/30 21:21:23;;;;;;;15.02;9.82;;;;;;;;;;9497888;30;20579;-65
2023/05/30 21:26:17;;;;;;;7.30;6.25;;;;;;;;;;9503702;30;20064;-65
2023/05/30 21:31:11;;;;;;;9.43;6.85;;;;;;;;;;9501208;30;20060;-65
2023/05/30 21:36:05;;;;;;;11.10;7.00;;;;;;;;;;9496495;30;20086;-66
2023/05/30 21:40:58;;;;;;;9.43;6.93;;;;;;;;;;9497964;30;20135;-66
2023/05/30 21:45:52;;;;;;;12.10;6.88;;;;;;;;;;9501599;30;20056;-65
2023/05/30 21:50:46;;;;;;;10.48;7.43;;;;;;;;;;9499054;30;20063;-65
2023/05/30 21:55:39;;;;;;;9.98;7.35;;;;;;;;;;9498244;30;20052;-66
2023/05/30 22:00:32;;;;;;;11.80;7.55;;;;;;;;;;9502876;30;20056;-66
2023/05/30 22:05:26;;;;;;;13.38;7.43;;;;;;;;;;9522335;30;20115;-64
2023/05/30 22:10:21;;;;;;;14.07;7.65;;;;;;;;;;9509818;30;20064;-65
2023/05/30 22:15:16;;;;;;;9.10;7.85;;;;;;;;;;9507982;30;20132;-65
2023/05/30 22:20:10;;;;;;;10.57;6.35;;;;;;;;;;9505399;30;20060;-65
2023/05/30 22:25:05;;;;;;;9.85;7.20;;;;;;;;;;9508128;30;20052;-65
2023/05/30 22:29:58;;;;;;;11.95;7.40;;;;;;;;;;9508261;30;20531;-65
2023/05/30 22:34:52;;;;;;;12.82;8.88;;;;;;;;;;9507346;30;20097;-65
2023/05/30 22:39:45;;;;;;;11.98;8.02;;;;;;;;;;9507085;30;20056;-65
2023/05/30 22:44:38;;;;;;;20.10;9.00;;;;;;;;;;9509515;30;20105;-65
2023/05/30 22:49:31;;;;;;;9.15;8.07;;;;;;;;;;9503479;30;20086;-65
2023/05/30 22:54:25;;;;;;;9.68;8.77;;;;;;;;;;9523103;30;20087;-65
2023/05/30 22:59:19;;;;;;;13.95;9.57;;;;;;;;;;9500275;30;20497;-65
2023/05/30 23:04:13;;;;;;;12.25;8.02;;;;;;;;;;9508698;30;20060;-65
2023/05/30 23:09:06;;;;;;;11.27;8.05;;;;;;;;;;9507796;30;20131;-65
2023/05/30 23:14:02;;;;;;;10.20;8.80;;;;;;;;;;9507748;30;20102;-65
2023/05/30 23:18:55;;;;;;;10.77;7.88;;;;;;;;;;9507347;30;20068;-65
2023/05/30 23:23:49;;;;;;;15.48;8.70;;;;;;;;;;9508518;30;20067;-65
2023/05/30 23:28:43;;;;;;;11.30;7.97;;;;;;;;;;9499166;30;20127;-65
2023/05/30 23:33:37;;;;;;;10.00;8.25;;;;;;;;;;9506654;30;20091;-65
2023/05/30 23:38:30;;;;;;;14.88;8.52;;;;;;;;;;9505459;30;20064;-65
2023/05/30 23:43:24;;;;;;;10.80;8.80;;;;;;;;;;9507542;30;20093;-65
2023/05/30 23:48:17;;;;;;;9.70;8.15;;;;;;;;;;9505433;30;20531;-65
2023/05/30 23:53:10;;;;;;;13.45;9.35;;;;;;;;;;9522014;30;20060;-65
2023/05/30 23:58:04;;;;;;;10.13;9.13;;;;;;;;;;9519471;30;20090;-65
